Security, Colorado
Current Conditions -  °F | °C
As of 12:54 AM on Thursday 29 Jan 2015 (Local Time) from KCOS Reporting Station
Broken Clouds Broken Clouds  
Wind Chill: 28°   Ceiling: 25000
Heat Index: 37°   Visibility: 10mi
Dew Point: 28°   Wind: 14mph
Humidity: 70%   Direction: 340°NNW
Pressure: 30.36"   Gusts: NA
Location:  38.7421°N, 104.639°W
Report Text: KCOS 290754Z 34012KT 10SM FEW050 FEW080 BKN250 03/M02 A3036 RMK AO2 SLP261 T00281022
Loading
Personal Weather Stations






























Interactive Weather Map New forecast layout! Learn more

10-Day Weather Forecast

Advertisements
Track Severe Weather on mobile